createdAt,value
2022-09-14T00:00:37.710Z,7.70
2022-09-14T00:01:37.780Z,7.10
2022-09-14T00:02:37.865Z,7.10
2022-09-14T00:03:37.696Z,7.60
2022-09-14T00:04:37.690Z,7.00
2022-09-14T00:05:37.664Z,6.90
2022-09-14T00:06:37.648Z,6.40
2022-09-14T00:07:37.673Z,7.80
2022-09-14T00:08:37.624Z,9.00
2022-09-14T00:09:37.633Z,6.30
2022-09-14T00:10:37.621Z,7.00
2022-09-14T00:11:37.631Z,7.10
2022-09-14T00:12:37.582Z,7.20
2022-09-14T00:13:37.574Z,7.10
2022-09-14T00:14:37.572Z,7.00
2022-09-14T00:15:37.563Z,7.50
2022-09-14T00:16:37.607Z,8.10
2022-09-14T00:17:37.535Z,8.20
2022-09-14T00:18:37.525Z,7.30
2022-09-14T00:19:38.518Z,7.40
2022-09-14T00:20:37.500Z,7.80
2022-09-14T00:21:37.506Z,7.20
2022-09-14T00:22:37.498Z,6.80
2022-09-14T00:23:37.471Z,7.20
2022-09-14T00:24:37.454Z,6.80
2022-09-14T00:25:37.463Z,6.60
2022-09-14T00:26:37.443Z,6.70
2022-09-14T00:27:37.439Z,7.20
2022-09-14T00:28:37.429Z,7.40
2022-09-14T00:29:37.418Z,6.90
2022-09-14T00:30:37.421Z,7.70
2022-09-14T00:31:37.434Z,8.30
2022-09-14T00:32:37.388Z,8.30
2022-09-14T00:33:37.377Z,7.10
2022-09-14T00:34:37.360Z,6.60
2022-09-14T00:35:37.366Z,8.10
2022-09-14T00:36:37.364Z,9.10
2022-09-14T00:37:37.334Z,8.70
2022-09-14T00:38:37.320Z,8.00
2022-09-14T00:39:37.309Z,8.10
2022-09-14T00:40:37.375Z,8.00
2022-09-14T00:41:37.316Z,7.90
2022-09-14T00:42:37.298Z,8.80
2022-09-14T00:43:37.273Z,8.20
2022-09-14T00:44:37.263Z,8.20
2022-09-14T00:45:37.298Z,8.60
2022-09-14T00:46:37.252Z,8.10
2022-09-14T00:47:37.247Z,8.00
2022-09-14T00:48:37.216Z,8.50
2022-09-14T00:49:37.212Z,8.40
2022-09-14T00:50:37.209Z,7.90
2022-09-14T00:51:37.193Z,8.40
2022-09-14T00:52:37.214Z,8.90
2022-09-14T00:53:37.172Z,8.50
2022-09-14T00:54:37.174Z,9.10
2022-09-14T00:55:37.164Z,8.40
2022-09-14T00:56:37.139Z,8.30
2022-09-14T00:57:37.153Z,8.40
2022-09-14T00:58:37.131Z,8.40
2022-09-14T00:59:37.112Z,8.60
2022-09-14T01:00:37.103Z,8.70
2022-09-14T01:01:37.165Z,8.00
2022-09-14T01:02:37.161Z,8.50
2022-09-14T01:03:37.075Z,8.70
2022-09-14T01:04:37.069Z,9.00
2022-09-14T01:05:37.082Z,8.30
2022-09-14T01:06:37.086Z,8.50
2022-09-14T01:07:37.069Z,8.60
2022-09-14T01:08:37.039Z,8.90
2022-09-14T01:09:37.041Z,9.10
2022-09-14T01:10:37.024Z,10.00
2022-09-14T01:11:37.013Z,10.90
2022-09-14T01:12:37.033Z,9.80
2022-09-14T01:13:37.009Z,10.30
2022-09-14T01:14:36.979Z,10.60
2022-09-14T01:15:36.957Z,10.70
2022-09-14T01:16:37.047Z,10.70
2022-09-14T01:17:36.955Z,11.30
2022-09-14T01:18:36.946Z,10.60
2022-09-14T01:19:36.915Z,10.30
2022-09-14T01:20:36.917Z,10.50
2022-09-14T01:21:36.921Z,11.60
2022-09-14T01:22:36.898Z,9.60
2022-09-14T01:23:36.930Z,10.50
2022-09-14T01:24:36.877Z,10.10
2022-09-14T01:25:36.872Z,10.50
2022-09-14T01:26:36.854Z,10.10
2022-09-14T01:27:36.838Z,11.60
2022-09-14T01:28:36.848Z,11.10
2022-09-14T01:29:36.826Z,10.60
2022-09-14T01:30:36.824Z,9.60
2022-09-14T01:31:36.829Z,10.50
2022-09-14T01:32:36.810Z,9.40
2022-09-14T01:33:36.786Z,9.90
2022-09-14T01:34:36.776Z,9.10
2022-09-14T01:35:36.758Z,10.00
2022-09-14T01:36:36.762Z,10.30
2022-09-14T01:37:36.769Z,10.80
2022-09-14T01:39:08.633Z,10.70
2022-09-14T01:39:36.721Z,11.30
2022-09-14T01:40:36.735Z,10.60
2022-09-14T01:41:36.704Z,12.20
2022-09-14T01:42:36.689Z,11.40
2022-09-14T01:43:37.051Z,11.00
2022-09-14T01:44:36.664Z,9.80
2022-09-14T01:45:36.728Z,11.50
2022-09-14T01:46:36.647Z,10.90
2022-09-14T01:47:36.638Z,11.20
2022-09-14T01:48:36.635Z,10.70
2022-09-14T01:49:36.639Z,10.60
2022-09-14T01:50:36.622Z,11.20
2022-09-14T01:51:36.603Z,11.20
2022-09-14T01:52:36.612Z,11.30
2022-09-14T01:53:36.571Z,10.80
2022-09-14T01:54:36.593Z,11.60
2022-09-14T01:55:36.557Z,12.20
2022-09-14T01:56:36.544Z,12.50
2022-09-14T01:57:36.535Z,12.60
2022-09-14T01:58:36.534Z,13.50
2022-09-14T01:59:36.514Z,14.00
2022-09-14T02:00:36.600Z,14.30
2022-09-14T02:01:36.532Z,13.30
2022-09-14T02:02:36.540Z,13.40
2022-09-14T02:03:36.492Z,13.70
2022-09-14T02:04:36.487Z,14.10
2022-09-14T02:05:36.490Z,11.00
2022-09-14T02:06:36.462Z,10.80
2022-09-14T02:07:37.439Z,10.50
2022-09-14T02:08:36.475Z,10.70
2022-09-14T02:09:36.424Z,10.40
2022-09-14T02:10:36.436Z,9.80
2022-09-14T02:11:36.425Z,11.00
2022-09-14T02:12:36.414Z,11.30
2022-09-14T02:13:36.388Z,12.80
2022-09-14T02:14:36.375Z,11.40
2022-09-14T02:15:36.363Z,12.00
2022-09-14T02:16:36.435Z,12.00
2022-09-14T02:17:36.370Z,12.90
2022-09-14T02:18:36.348Z,14.30
2022-09-14T02:19:36.347Z,12.00
2022-09-14T02:20:36.319Z,13.20
2022-09-14T02:21:36.311Z,14.90
2022-09-14T02:22:36.300Z,14.40
2022-09-14T02:23:36.289Z,15.00
2022-09-14T02:24:36.335Z,13.20
2022-09-14T02:25:36.259Z,15.10
2022-09-14T02:26:36.277Z,12.40
2022-09-14T02:27:36.244Z,13.20
2022-09-14T02:28:36.232Z,11.40
2022-09-14T02:29:36.234Z,13.20
2022-09-14T02:30:36.236Z,13.10
2022-09-14T02:31:36.286Z,12.30
2022-09-14T02:32:36.206Z,12.50
2022-09-14T02:33:36.186Z,12.70
2022-09-14T02:34:36.176Z,12.40
2022-09-14T02:35:36.195Z,13.10
2022-09-14T02:36:36.162Z,12.50
2022-09-14T02:37:36.151Z,14.20
2022-09-14T02:38:36.144Z,15.10
2022-09-14T02:39:36.141Z,14.40
2022-09-14T02:40:36.140Z,13.70
2022-09-14T02:41:36.108Z,14.90
2022-09-14T02:42:36.104Z,14.30
2022-09-14T02:43:36.095Z,15.10
2022-09-14T02:44:36.078Z,15.60
2022-09-14T02:45:36.077Z,13.10
2022-09-14T02:46:36.146Z,12.30
2022-09-14T02:47:36.046Z,14.90
2022-09-14T02:48:36.106Z,13.90
2022-09-14T02:49:36.021Z,14.60
2022-09-14T02:50:36.020Z,14.80
2022-09-14T02:51:36.024Z,15.40
2022-09-14T02:52:35.991Z,15.00
2022-09-14T02:53:35.987Z,14.20
2022-09-14T02:54:35.984Z,15.00
2022-09-14T02:55:35.962Z,16.30
2022-09-14T02:56:35.980Z,14.40
2022-09-14T02:57:35.962Z,13.50
2022-09-14T02:58:35.936Z,12.20
2022-09-14T02:59:35.934Z,14.90
2022-09-14T03:00:36.006Z,13.70
2022-09-14T03:01:35.963Z,12.70
2022-09-14T03:02:35.891Z,13.70
2022-09-14T03:03:36.045Z,14.20
2022-09-14T03:04:35.876Z,13.60
2022-09-14T03:05:35.867Z,14.20
2022-09-14T03:06:35.893Z,14.50
2022-09-14T03:07:35.846Z,15.30
2022-09-14T03:08:35.839Z,14.70
2022-09-14T03:09:35.846Z,15.20
2022-09-14T03:10:35.840Z,15.50
2022-09-14T03:11:35.817Z,15.90
2022-09-14T03:12:35.823Z,15.90
2022-09-14T03:13:35.855Z,15.70
2022-09-14T03:14:35.791Z,15.60
2022-09-14T03:15:35.764Z,15.00
2022-09-14T03:16:35.868Z,16.10
2022-09-14T03:17:35.756Z,15.40
2022-09-14T03:18:35.737Z,16.70
2022-09-14T03:19:35.740Z,14.70
2022-09-14T03:20:35.716Z,15.10
2022-09-14T03:21:35.708Z,15.50
2022-09-14T03:22:35.692Z,15.80
2022-09-14T03:23:35.717Z,17.10
2022-09-14T03:24:35.679Z,15.70
2022-09-14T03:25:35.673Z,17.60
2022-09-14T03:26:35.676Z,15.60
2022-09-14T03:27:35.663Z,16.30
2022-09-14T03:28:35.649Z,19.30
2022-09-14T03:29:35.629Z,19.20
2022-09-14T03:30:35.632Z,19.90
2022-09-14T03:31:35.662Z,17.40
2022-09-14T03:32:35.605Z,18.80
2022-09-14T03:33:35.619Z,18.30
2022-09-14T03:34:35.584Z,18.40
2022-09-14T03:35:35.562Z,17.50
2022-09-14T03:36:35.552Z,17.10
2022-09-14T03:37:35.553Z,17.90
2022-09-14T03:38:35.555Z,17.90
2022-09-14T03:39:35.530Z,18.60
2022-09-14T03:40:35.635Z,17.30
2022-09-14T03:41:35.523Z,16.30
2022-09-14T03:42:35.504Z,17.20
2022-09-14T03:43:35.494Z,17.10
2022-09-14T03:44:35.491Z,17.30
2022-09-14T03:45:35.472Z,18.00
2022-09-14T03:46:35.567Z,17.10
2022-09-14T03:47:35.454Z,16.50
2022-09-14T03:48:35.442Z,20.30
2022-09-14T03:49:35.437Z,21.60
2022-09-14T03:50:35.416Z,18.00
2022-09-14T03:51:35.429Z,17.50
2022-09-14T03:52:35.430Z,17.40
2022-09-14T03:53:35.400Z,17.50
2022-09-14T03:54:35.393Z,19.20
2022-09-14T03:55:35.364Z,18.30
2022-09-14T03:56:35.379Z,18.30
2022-09-14T03:57:35.379Z,18.30
2022-09-14T03:58:35.346Z,19.00
2022-09-14T03:59:35.345Z,17.20
2022-09-14T04:00:35.327Z,18.10
2022-09-14T04:01:35.398Z,20.40
2022-09-14T04:02:35.377Z,19.20
2022-09-14T04:03:35.300Z,17.60
2022-09-14T04:04:35.278Z,17.70
2022-09-14T04:05:35.270Z,21.40
2022-09-14T04:06:35.290Z,19.80
2022-09-14T04:07:35.264Z,18.90
2022-09-14T04:08:35.325Z,19.20
2022-09-14T04:09:35.235Z,18.70
2022-09-14T04:10:35.223Z,19.00
2022-09-14T04:11:35.217Z,19.80
2022-09-14T04:12:35.217Z,17.50
2022-09-14T04:13:35.197Z,18.60
2022-09-14T04:14:35.190Z,17.30
2022-09-14T04:15:35.167Z,18.30
2022-09-14T04:16:35.195Z,17.90
2022-09-14T04:17:35.173Z,17.00
2022-09-14T04:18:35.134Z,18.00
2022-09-14T04:19:35.123Z,17.00
2022-09-14T04:20:35.123Z,17.80
2022-09-14T04:21:35.119Z,17.30
2022-09-14T04:22:35.114Z,18.10
2022-09-14T04:23:42.353Z,16.20
2022-09-14T04:24:36.103Z,17.70
2022-09-14T04:25:35.069Z,16.00
2022-09-14T04:26:35.063Z,19.30
2022-09-14T04:27:35.061Z,17.50
2022-09-14T04:28:35.044Z,18.00
2022-09-14T04:29:35.039Z,17.60
2022-09-14T04:30:35.022Z,16.80
2022-09-14T04:31:35.065Z,15.70
2022-09-14T04:32:35.001Z,17.00
2022-09-14T04:33:35.000Z,14.80
2022-09-14T04:34:35.003Z,15.00
2022-09-14T04:35:35.002Z,14.30
2022-09-14T04:36:34.964Z,14.60
2022-09-14T04:37:35.080Z,14.40
2022-09-14T04:38:34.948Z,14.00
2022-09-14T04:39:34.954Z,15.00
2022-09-14T04:40:34.921Z,15.40
2022-09-14T04:41:34.912Z,15.90
2022-09-14T04:42:34.907Z,15.80
2022-09-14T04:43:34.885Z,16.40
2022-09-14T04:44:34.886Z,16.00
2022-09-14T04:45:34.894Z,15.60
2022-09-14T04:46:34.953Z,14.90
2022-09-14T04:47:34.859Z,15.10
2022-09-14T04:48:34.847Z,15.60
2022-09-14T04:49:34.858Z,15.50
2022-09-14T04:50:34.847Z,16.20
2022-09-14T04:51:34.830Z,15.00
2022-09-14T04:52:34.800Z,17.50
2022-09-14T04:53:34.792Z,16.10
2022-09-14T04:54:34.811Z,15.30
2022-09-14T04:55:34.780Z,15.30
2022-09-14T04:56:34.757Z,15.30
2022-09-14T04:57:34.771Z,14.10
2022-09-14T04:58:34.739Z,15.60
2022-09-14T04:59:34.748Z,16.10
2022-09-14T05:00:34.726Z,15.80
2022-09-14T05:01:34.795Z,14.40
2022-09-14T05:02:34.756Z,15.00
2022-09-14T05:03:34.682Z,14.80
2022-09-14T05:04:34.693Z,15.50
2022-09-14T05:05:34.662Z,15.00
2022-09-14T05:06:34.658Z,15.10
2022-09-14T05:07:34.673Z,14.40
2022-09-14T05:08:34.663Z,14.60
2022-09-14T05:09:34.635Z,14.70
2022-09-14T05:10:34.630Z,15.00
2022-09-14T05:11:34.635Z,12.40
2022-09-14T05:12:34.672Z,13.10
2022-09-14T05:13:34.595Z,13.30
2022-09-14T05:14:34.591Z,13.60
2022-09-14T05:15:34.669Z,14.90
2022-09-14T05:16:34.590Z,13.70
2022-09-14T05:17:34.557Z,15.20
2022-09-14T05:18:34.546Z,14.20
2022-09-14T05:19:34.548Z,13.40
2022-09-14T05:20:34.537Z,14.80
2022-09-14T05:21:34.532Z,12.60
2022-09-14T05:22:34.507Z,14.20
2022-09-14T05:23:34.492Z,14.10
2022-09-14T05:24:34.506Z,13.10
2022-09-14T05:25:34.474Z,13.10
2022-09-14T05:26:34.468Z,13.60
2022-09-14T05:27:34.451Z,14.80
2022-09-14T05:28:34.446Z,15.00
2022-09-14T05:29:34.456Z,14.50
2022-09-14T05:30:34.452Z,14.70
2022-09-14T05:31:34.469Z,15.30
2022-09-14T05:32:34.404Z,15.80
2022-09-14T05:33:34.422Z,16.40
2022-09-14T05:34:34.404Z,15.40
2022-09-14T05:35:34.399Z,16.20
2022-09-14T05:36:34.370Z,17.40
2022-09-14T05:37:34.355Z,16.80
2022-09-14T05:38:34.342Z,16.90
2022-09-14T05:39:34.348Z,17.00
2022-09-14T05:40:34.345Z,16.90
2022-09-14T05:41:34.314Z,17.30
2022-09-14T05:42:34.299Z,15.90
2022-09-14T05:43:34.330Z,17.90
2022-09-14T05:44:34.460Z,17.00
2022-09-14T05:45:34.293Z,16.30
2022-09-14T05:46:34.304Z,15.40
2022-09-14T05:47:38.836Z,16.50
2022-09-14T05:48:35.258Z,16.30
2022-09-14T05:49:34.227Z,16.90
2022-09-14T05:50:34.222Z,16.50
2022-09-14T05:51:34.236Z,17.20
2022-09-14T05:52:34.202Z,17.80
2022-09-14T05:53:34.198Z,17.00
2022-09-14T05:54:34.184Z,16.40
2022-09-14T05:55:34.173Z,17.30
2022-09-14T05:56:34.219Z,17.50
2022-09-14T05:57:34.151Z,16.80
2022-09-14T05:58:34.152Z,16.40
2022-09-14T05:59:34.136Z,16.30
2022-09-14T06:00:34.118Z,16.50
2022-09-14T06:01:34.178Z,15.40
2022-09-14T06:02:34.122Z,13.20
2022-09-14T06:03:34.091Z,14.50
2022-09-14T06:04:34.098Z,14.60
2022-09-14T06:05:34.129Z,13.10
2022-09-14T06:06:34.084Z,12.20
2022-09-14T06:07:34.047Z,13.30
2022-09-14T06:08:34.031Z,13.80
2022-09-14T06:09:34.027Z,11.30
2022-09-14T06:10:34.017Z,11.50
2022-09-14T06:11:34.011Z,11.60
2022-09-14T06:12:34.005Z,11.10
2022-09-14T06:13:33.987Z,10.70
2022-09-14T06:14:33.974Z,11.70
2022-09-14T06:15:33.967Z,12.60
2022-09-14T06:16:33.990Z,13.10
2022-09-14T06:17:33.943Z,13.60
2022-09-14T06:18:33.942Z,13.70
2022-09-14T06:19:33.930Z,13.60
2022-09-14T06:20:33.920Z,13.00
2022-09-14T06:21:33.916Z,14.00
2022-09-14T06:22:33.899Z,12.90
2022-09-14T06:23:33.886Z,13.70
2022-09-14T06:24:33.887Z,14.40
2022-09-14T06:25:33.872Z,14.30
2022-09-14T06:26:33.874Z,14.10
2022-09-14T06:27:33.838Z,13.40
2022-09-14T06:28:33.839Z,13.70
2022-09-14T06:29:33.832Z,13.30
2022-09-14T06:30:33.810Z,14.70
2022-09-14T06:31:33.840Z,13.20
2022-09-14T06:32:33.896Z,14.40
2022-09-14T06:33:33.799Z,13.30
2022-09-14T06:34:33.800Z,12.30
2022-09-14T06:35:33.774Z,13.70
2022-09-14T06:36:33.767Z,13.10
2022-09-14T06:37:33.741Z,13.80
2022-09-14T06:38:33.743Z,13.50
2022-09-14T06:39:33.756Z,13.80
2022-09-14T06:40:33.863Z,13.30
2022-09-14T06:41:33.714Z,12.40
2022-09-14T06:42:33.718Z,12.30
2022-09-14T06:43:33.681Z,11.30
2022-09-14T06:44:33.697Z,11.60
2022-09-14T06:45:33.706Z,11.80
2022-09-14T06:46:33.666Z,12.40
2022-09-14T06:47:33.681Z,12.20
2022-09-14T06:48:33.706Z,12.70
2022-09-14T06:49:33.625Z,11.80
2022-09-14T06:50:33.626Z,12.50
2022-09-14T06:51:33.609Z,10.20
2022-09-14T06:52:33.994Z,11.10
2022-09-14T06:53:34.588Z,9.10
2022-09-14T06:54:33.591Z,9.90
2022-09-14T06:55:33.570Z,10.30
2022-09-14T06:56:33.550Z,10.60
2022-09-14T06:57:33.548Z,10.70
2022-09-14T06:58:33.564Z,11.10
2022-09-14T06:59:33.558Z,11.80
2022-09-14T07:00:33.524Z,11.30
2022-09-14T07:01:33.511Z,12.30
2022-09-14T07:02:33.606Z,11.50
2022-09-14T07:03:33.515Z,12.20
2022-09-14T07:04:33.502Z,11.80
2022-09-14T07:05:33.481Z,11.20
2022-09-14T07:06:33.484Z,11.60
2022-09-14T07:07:33.502Z,11.70
2022-09-14T07:08:33.433Z,11.10
2022-09-14T07:09:33.432Z,12.30
2022-09-14T07:10:33.414Z,10.10
2022-09-14T07:11:33.404Z,10.60
2022-09-14T07:12:33.401Z,10.60
2022-09-14T07:13:34.385Z,10.20
2022-09-14T07:14:33.394Z,10.00
2022-09-14T07:15:33.425Z,10.60
2022-09-14T07:16:33.349Z,9.80
2022-09-14T07:17:33.354Z,9.90
2022-09-14T07:18:33.375Z,9.10
2022-09-14T07:19:33.347Z,9.00
2022-09-14T07:20:33.325Z,8.90
2022-09-14T07:21:33.308Z,9.10
2022-09-14T07:22:33.301Z,8.80
2022-09-14T07:23:33.296Z,9.90
2022-09-14T07:24:33.269Z,10.30
2022-09-14T07:25:33.263Z,8.40
2022-09-14T07:26:33.305Z,8.00
2022-09-14T07:27:33.284Z,9.10
2022-09-14T07:28:33.298Z,8.70
2022-09-14T07:29:33.242Z,9.00
2022-09-14T07:30:33.239Z,9.10
2022-09-14T07:31:34.254Z,9.50
2022-09-14T07:32:33.235Z,8.30
2022-09-14T07:33:33.177Z,9.40
2022-09-14T07:34:33.177Z,8.80
2022-09-14T07:35:33.168Z,8.40
2022-09-14T07:36:34.956Z,9.80
2022-09-14T07:37:34.179Z,9.60
2022-09-14T07:38:50.993Z,9.60
2022-09-14T07:40:00.082Z,9.50
2022-09-14T07:40:33.242Z,9.30
2022-09-14T07:41:33.099Z,8.80
2022-09-14T07:42:33.107Z,9.40
2022-09-14T07:43:33.078Z,8.90
2022-09-14T07:44:33.065Z,9.00
2022-09-14T07:45:33.092Z,9.30
2022-09-14T07:46:33.056Z,8.30
2022-09-14T07:47:33.038Z,8.80
2022-09-14T07:48:33.049Z,8.80
2022-09-14T07:49:33.019Z,8.40
2022-09-14T07:50:33.006Z,9.10
2022-09-14T07:51:33.004Z,8.10
2022-09-14T07:52:38.020Z,8.80
2022-09-14T07:53:34.993Z,8.30
2022-09-14T07:54:32.978Z,7.50
2022-09-14T07:55:32.957Z,8.00
2022-09-14T07:56:32.941Z,8.40
2022-09-14T07:57:54.506Z,8.90
2022-09-14T07:58:34.917Z,8.20
2022-09-14T07:59:36.551Z,8.20
2022-09-14T08:00:33.906Z,8.50
2022-09-14T08:01:32.972Z,8.50
2022-09-14T08:02:32.937Z,7.00
2022-09-14T08:03:32.876Z,7.40
2022-09-14T08:04:32.865Z,7.30
2022-09-14T08:05:32.852Z,7.40
2022-09-14T08:06:32.860Z,6.50
2022-09-14T08:07:32.830Z,5.90
2022-09-14T08:08:32.890Z,6.90
2022-09-14T08:09:32.826Z,7.50
2022-09-14T08:10:32.802Z,6.60
2022-09-14T08:11:32.799Z,6.90
2022-09-14T08:12:32.793Z,7.60
2022-09-14T08:13:32.777Z,7.00
2022-09-14T08:14:32.762Z,6.40
2022-09-14T08:15:32.770Z,6.60
2022-09-14T08:16:33.760Z,6.90
2022-09-14T08:17:32.726Z,7.20
2022-09-14T08:18:32.736Z,7.30
2022-09-14T08:19:32.697Z,7.00
2022-09-14T08:20:32.699Z,6.70
2022-09-14T08:21:32.690Z,6.20
2022-09-14T08:22:32.685Z,5.50
2022-09-14T08:23:32.665Z,5.90
2022-09-14T08:24:32.654Z,6.50
2022-09-14T08:25:32.641Z,6.10
2022-09-14T08:26:32.671Z,6.20
2022-09-14T08:27:32.635Z,5.90
2022-09-14T08:28:32.618Z,6.40
2022-09-14T08:29:32.608Z,7.30
2022-09-14T08:30:32.619Z,7.60
2022-09-14T08:31:32.659Z,7.30
2022-09-14T08:32:32.577Z,7.20
2022-09-14T08:33:32.561Z,6.80
2022-09-14T08:34:32.559Z,6.10
2022-09-14T08:35:56.362Z,6.10
2022-09-14T08:36:34.572Z,5.90
2022-09-14T08:37:32.520Z,7.70
2022-09-14T08:38:32.520Z,6.30
2022-09-14T08:39:32.510Z,5.80
2022-09-14T08:40:32.606Z,5.90
2022-09-14T08:41:32.494Z,5.20
2022-09-14T08:42:32.505Z,6.60
2022-09-14T08:43:32.471Z,5.30
2022-09-14T08:44:32.465Z,5.20
2022-09-14T08:45:32.519Z,5.40
2022-09-14T08:46:32.446Z,5.20
2022-09-14T08:47:32.452Z,6.20
2022-09-14T08:48:32.429Z,5.20
2022-09-14T08:49:32.416Z,5.10
2022-09-14T08:50:36.903Z,4.70
2022-09-14T08:51:34.396Z,4.20
2022-09-14T08:52:32.417Z,3.60
2022-09-14T08:53:32.370Z,4.10
2022-09-14T08:54:32.367Z,4.50
2022-09-14T08:55:32.362Z,4.70
2022-09-14T08:56:32.347Z,4.10
2022-09-14T08:57:32.352Z,4.80
2022-09-14T08:58:32.350Z,4.50
2022-09-14T08:59:32.326Z,4.50
2022-09-14T09:00:32.393Z,3.90
2022-09-14T09:01:32.288Z,4.10
2022-09-14T09:02:32.285Z,3.70
2022-09-14T09:03:32.388Z,3.70
2022-09-14T09:04:32.274Z,3.20
2022-09-14T09:05:32.264Z,3.20
2022-09-14T09:06:32.253Z,3.60
2022-09-14T09:07:32.278Z,3.20
2022-09-14T09:08:32.248Z,3.30
2022-09-14T09:09:32.220Z,3.40
2022-09-14T09:10:32.220Z,3.20
2022-09-14T09:11:32.206Z,3.30
2022-09-14T09:12:32.207Z,3.70
2022-09-14T09:13:32.188Z,3.20
2022-09-14T09:14:32.172Z,3.00
2022-09-14T09:15:32.162Z,3.10
2022-09-14T09:16:32.235Z,2.60
2022-09-14T09:17:32.139Z,2.80
2022-09-14T09:18:32.132Z,2.40
2022-09-14T09:19:32.115Z,2.70
2022-09-14T09:20:32.111Z,2.80
2022-09-14T09:21:32.114Z,2.80
2022-09-14T09:22:32.102Z,2.60
2022-09-14T09:23:32.082Z,2.50
2022-09-14T09:24:36.393Z,2.30
2022-09-14T09:25:33.059Z,2.20
2022-09-14T09:26:32.070Z,2.00
2022-09-14T09:27:32.043Z,2.20
2022-09-14T09:28:32.033Z,2.20
2022-09-14T09:29:32.026Z,2.10
2022-09-14T09:30:32.016Z,2.20
2022-09-14T09:31:32.063Z,2.50
2022-09-14T09:32:32.000Z,2.70
2022-09-14T09:33:32.012Z,2.30
2022-09-14T09:34:31.965Z,2.60
2022-09-14T09:35:31.952Z,2.50
2022-09-14T09:36:31.953Z,2.80
2022-09-14T09:37:31.932Z,2.60
2022-09-14T09:38:31.980Z,2.30
2022-09-14T09:39:31.917Z,2.70
2022-09-14T09:40:31.946Z,3.10
2022-09-14T09:41:31.901Z,3.00
2022-09-14T09:42:31.901Z,2.70
2022-09-14T09:43:48.855Z,3.50
2022-09-14T09:44:33.955Z,3.80
2022-09-14T09:45:31.862Z,3.60
2022-09-14T09:46:31.881Z,3.40
2022-09-14T09:47:31.841Z,3.10
2022-09-14T09:48:31.838Z,3.30
2022-09-14T09:49:31.846Z,2.70
2022-09-14T09:50:31.812Z,2.90
2022-09-14T09:51:31.827Z,2.70
2022-09-14T09:52:33.070Z,2.90
2022-09-14T09:53:31.777Z,2.50
2022-09-14T09:54:31.776Z,3.20
2022-09-14T09:55:31.790Z,3.00
2022-09-14T09:56:31.761Z,2.70
2022-09-14T09:57:31.771Z,2.80
2022-09-14T09:58:31.735Z,3.10
2022-09-14T09:59:31.735Z,3.20
2022-09-14T10:00:31.721Z,3.20
2022-09-14T10:01:31.921Z,2.90
2022-09-14T10:02:31.791Z,3.00
2022-09-14T10:03:31.694Z,2.50
2022-09-14T10:04:31.681Z,2.50
2022-09-14T10:05:31.664Z,2.80
2022-09-14T10:06:31.676Z,2.60
2022-09-14T10:07:31.661Z,2.70
2022-09-14T10:08:31.629Z,2.10
2022-09-14T10:09:31.636Z,2.70
2022-09-14T10:10:31.612Z,2.40
2022-09-14T10:11:31.609Z,2.10
2022-09-14T10:12:31.583Z,1.80
2022-09-14T10:13:35.429Z,2.10
2022-09-14T10:14:32.605Z,2.00
2022-09-14T10:15:31.566Z,1.60
2022-09-14T10:16:31.604Z,1.70
2022-09-14T10:17:31.560Z,1.80
2022-09-14T10:18:31.551Z,1.70
2022-09-14T10:19:31.536Z,1.90
2022-09-14T10:20:31.500Z,1.90
2022-09-14T10:21:31.494Z,2.30
2022-09-14T10:22:31.500Z,2.10
2022-09-14T10:23:31.505Z,1.70
2022-09-14T10:24:31.485Z,1.80
2022-09-14T10:25:31.455Z,1.90
2022-09-14T10:26:31.446Z,1.90
2022-09-14T10:27:35.611Z,2.00
2022-09-14T10:28:31.446Z,2.60
2022-09-14T10:29:31.438Z,2.20
2022-09-14T10:30:31.415Z,2.30
2022-09-14T10:31:31.511Z,2.40
2022-09-14T10:32:31.457Z,1.90
2022-09-14T10:33:31.389Z,2.00
2022-09-14T10:34:31.411Z,1.60
2022-09-14T10:35:31.380Z,1.70
2022-09-14T10:36:31.339Z,1.50
2022-09-14T10:37:31.327Z,1.60
2022-09-14T10:38:31.317Z,1.60
2022-09-14T10:39:31.307Z,1.60
2022-09-14T10:40:31.361Z,1.80
2022-09-14T10:41:31.301Z,1.80
2022-09-14T10:42:31.278Z,1.60
2022-09-14T10:43:31.260Z,1.80
2022-09-14T10:44:31.262Z,1.90
2022-09-14T10:45:31.264Z,1.30
2022-09-14T10:46:31.294Z,1.40
2022-09-14T10:47:31.229Z,1.20
2022-09-14T10:48:31.232Z,1.50
2022-09-14T10:49:31.205Z,1.40
2022-09-14T10:50:31.212Z,1.70
2022-09-14T10:51:31.193Z,1.60
2022-09-14T10:52:31.196Z,1.40
2022-09-14T10:53:31.151Z,1.50
2022-09-14T10:54:32.158Z,1.60
2022-09-14T10:55:31.137Z,1.80
2022-09-14T10:56:31.139Z,1.50
2022-09-14T10:57:31.137Z,1.30
2022-09-14T10:58:31.202Z,1.20
2022-09-14T10:59:31.137Z,1.40
2022-09-14T11:00:31.105Z,1.70
2022-09-14T11:01:31.111Z,1.70
2022-09-14T11:02:31.174Z,1.60
2022-09-14T11:03:31.071Z,1.70
2022-09-14T11:04:31.087Z,1.50
2022-09-14T11:05:31.060Z,1.70
2022-09-14T11:06:31.048Z,1.60
2022-09-14T11:07:31.036Z,1.70
2022-09-14T11:08:31.025Z,1.50
2022-09-14T11:09:31.033Z,1.60
2022-09-14T11:10:31.017Z,1.50
2022-09-14T11:11:31.008Z,1.40
2022-09-14T11:12:30.991Z,1.60
2022-09-14T11:13:30.978Z,1.60
2022-09-14T11:14:30.965Z,1.40
2022-09-14T11:15:31.051Z,1.30
2022-09-14T11:16:31.017Z,1.70
2022-09-14T11:17:30.940Z,1.50
2022-09-14T11:18:30.918Z,1.60
2022-09-14T11:19:30.911Z,1.50
2022-09-14T11:20:30.984Z,1.70
2022-09-14T11:21:30.888Z,1.70
2022-09-14T11:22:30.885Z,2.00
2022-09-14T11:23:30.867Z,1.70
2022-09-14T11:24:30.863Z,1.60
2022-09-14T11:25:30.857Z,2.00
2022-09-14T11:26:30.859Z,2.00
2022-09-14T11:27:30.831Z,1.90
2022-09-14T11:28:30.826Z,2.40
2022-09-14T11:29:30.823Z,1.60
2022-09-14T11:30:30.800Z,1.60
2022-09-14T11:31:30.842Z,1.70
2022-09-14T11:32:30.775Z,1.50
2022-09-14T11:33:31.551Z,1.30
2022-09-14T11:34:31.791Z,1.50
2022-09-14T11:35:30.755Z,1.50
2022-09-14T11:36:30.758Z,1.60
2022-09-14T11:37:30.754Z,1.50
2022-09-14T11:38:30.729Z,1.40
2022-09-14T11:39:30.711Z,1.30
2022-09-14T11:40:30.809Z,1.40
2022-09-14T11:41:30.714Z,1.30
2022-09-14T11:42:30.702Z,1.50
2022-09-14T11:43:30.675Z,1.40
2022-09-14T11:44:30.663Z,1.70
2022-09-14T11:45:30.660Z,1.80
2022-09-14T11:46:30.660Z,1.40
2022-09-14T11:47:30.666Z,1.40
2022-09-14T11:48:45.911Z,1.50
2022-09-14T11:49:32.615Z,1.20
2022-09-14T11:50:30.612Z,1.30
2022-09-14T11:51:30.590Z,1.30
2022-09-14T11:52:30.575Z,1.20
2022-09-14T11:53:30.592Z,1.10
2022-09-14T11:54:30.561Z,1.20
2022-09-14T11:55:30.573Z,1.00
2022-09-14T11:56:30.547Z,1.40
2022-09-14T11:57:30.532Z,1.20
2022-09-14T11:58:30.526Z,1.30
2022-09-14T11:59:30.504Z,1.40
2022-09-14T12:00:31.518Z,1.50
2022-09-14T12:01:30.505Z,1.40
2022-09-14T12:02:30.632Z,1.20
2022-09-14T12:03:30.526Z,1.30
2022-09-14T12:04:30.458Z,1.30
2022-09-14T12:05:30.523Z,1.30
2022-09-14T12:06:30.440Z,1.40
2022-09-14T12:07:30.424Z,1.60
2022-09-14T12:08:30.780Z,1.10
2022-09-14T12:09:30.425Z,1.50
2022-09-14T12:10:30.446Z,1.10
2022-09-14T12:11:30.388Z,1.50
2022-09-14T12:12:30.385Z,1.10
2022-09-14T12:13:30.372Z,1.70
2022-09-14T12:14:30.441Z,1.60
2022-09-14T12:15:30.381Z,1.80
2022-09-14T12:16:34.371Z,1.40
2022-09-14T12:17:40.343Z,1.60
2022-09-14T12:18:32.328Z,1.50
2022-09-14T12:19:30.311Z,1.50
2022-09-14T12:20:30.341Z,1.40
2022-09-14T12:21:30.286Z,1.40
2022-09-14T12:22:30.283Z,1.50
2022-09-14T12:23:30.269Z,1.50
2022-09-14T12:24:30.302Z,1.40
2022-09-14T12:25:30.299Z,2.00
2022-09-14T12:26:30.242Z,1.70
2022-09-14T12:27:30.254Z,1.70
2022-09-14T12:28:30.215Z,1.70
2022-09-14T12:29:30.205Z,1.50
2022-09-14T12:30:30.201Z,1.00
2022-09-14T12:31:30.238Z,1.00
2022-09-14T12:32:30.173Z,1.20
2022-09-14T12:33:30.155Z,1.20
2022-09-14T12:34:30.181Z,1.20
2022-09-14T12:35:30.132Z,1.30
2022-09-14T12:36:31.134Z,1.50
2022-09-14T12:37:30.125Z,1.50
2022-09-14T12:38:30.115Z,1.50
2022-09-14T12:39:30.130Z,1.60
2022-09-14T12:40:30.165Z,1.40
2022-09-14T12:41:30.107Z,1.40
2022-09-14T12:42:30.067Z,1.20
2022-09-14T12:43:30.063Z,1.50
2022-09-14T12:44:30.075Z,1.90
2022-09-14T12:45:30.055Z,1.40
2022-09-14T12:46:30.122Z,1.50
2022-09-14T12:47:30.019Z,1.50
2022-09-14T12:48:31.015Z,1.70
2022-09-14T12:49:30.018Z,1.70
2022-09-14T12:50:29.994Z,1.80
2022-09-14T12:51:29.996Z,1.60
2022-09-14T12:52:29.992Z,1.70
2022-09-14T12:53:29.976Z,1.70
2022-09-14T12:54:29.957Z,1.80
2022-09-14T12:55:29.946Z,1.70
2022-09-14T12:56:29.975Z,1.90
2022-09-14T12:57:29.973Z,1.60
2022-09-14T12:58:29.920Z,1.90
2022-09-14T12:59:29.910Z,1.70
2022-09-14T13:00:29.905Z,1.70
2022-09-14T13:01:30.015Z,1.90
2022-09-14T13:02:30.106Z,2.50
2022-09-14T13:03:29.876Z,1.80
2022-09-14T13:04:29.853Z,1.80
2022-09-14T13:05:29.849Z,2.10
2022-09-14T13:06:29.832Z,1.70